createdAt,value
2018-08-03T00:00:35.083Z,13.80
2018-08-03T00:01:35.042Z,9.00
2018-08-03T00:02:35.027Z,8.90
2018-08-03T00:03:34.988Z,6.90
2018-08-03T00:04:34.959Z,9.20
2018-08-03T00:05:34.924Z,9.50
2018-08-03T00:06:34.896Z,10.70
2018-08-03T00:07:34.867Z,8.90
2018-08-03T00:08:34.838Z,8.10
2018-08-03T00:09:34.817Z,7.40
2018-08-03T00:10:34.786Z,7.60
2018-08-03T00:11:34.754Z,9.10
2018-08-03T00:12:34.727Z,7.80
2018-08-03T00:13:34.689Z,12.40
2018-08-03T00:14:34.662Z,10.80
2018-08-03T00:15:34.632Z,10.30
2018-08-03T00:16:34.605Z,12.40
2018-08-03T00:17:34.580Z,10.40
2018-08-03T00:18:34.547Z,10.20
2018-08-03T00:19:34.527Z,11.70
2018-08-03T00:20:34.489Z,9.60
2018-08-03T00:21:34.460Z,11.40
2018-08-03T00:22:34.428Z,9.30
2018-08-03T00:23:34.403Z,9.70
2018-08-03T00:24:34.377Z,9.40
2018-08-03T00:25:34.337Z,7.80
2018-08-03T00:26:34.311Z,7.70
2018-08-03T00:27:34.282Z,7.50
2018-08-03T00:28:34.249Z,11.60
2018-08-03T00:29:34.225Z,9.80
2018-08-03T00:30:34.221Z,10.30
2018-08-03T00:31:34.167Z,8.70
2018-08-03T00:32:34.181Z,12.20
2018-08-03T00:33:34.108Z,11.30
2018-08-03T00:34:34.076Z,10.10
2018-08-03T00:35:34.048Z,12.00
2018-08-03T00:36:34.019Z,10.30
2018-08-03T00:37:33.984Z,7.50
2018-08-03T00:38:33.958Z,10.30
2018-08-03T00:39:33.927Z,10.40
2018-08-03T00:40:33.899Z,9.10
2018-08-03T00:41:33.872Z,8.90
2018-08-03T00:42:33.841Z,14.00
2018-08-03T00:43:33.816Z,9.20
2018-08-03T00:44:33.785Z,8.40
2018-08-03T00:45:33.749Z,11.00
2018-08-03T00:46:33.722Z,14.30
2018-08-03T00:47:33.698Z,10.40
2018-08-03T00:48:33.667Z,9.20
2018-08-03T00:49:33.643Z,9.60
2018-08-03T00:50:33.606Z,10.40
2018-08-03T00:51:33.575Z,11.50
2018-08-03T00:52:33.543Z,10.70
2018-08-03T00:53:33.519Z,12.60
2018-08-03T00:54:33.489Z,9.70
2018-08-03T00:55:33.464Z,14.00
2018-08-03T00:56:33.435Z,13.80
2018-08-03T00:57:33.398Z,10.10
2018-08-03T00:58:33.368Z,10.90
2018-08-03T00:59:33.340Z,9.10
2018-08-03T01:00:33.309Z,9.00
2018-08-03T01:01:33.283Z,8.00
2018-08-03T01:02:33.253Z,8.90
2018-08-03T01:03:33.224Z,9.50
2018-08-03T01:04:33.194Z,11.30
2018-08-03T01:05:33.159Z,10.00
2018-08-03T01:06:33.132Z,11.20
2018-08-03T01:07:33.105Z,9.60
2018-08-03T01:08:33.078Z,9.20
2018-08-03T01:09:33.041Z,7.80
2018-08-03T01:10:33.015Z,11.50
2018-08-03T01:11:32.990Z,9.50
2018-08-03T01:12:32.953Z,10.40
2018-08-03T01:13:32.930Z,8.50
2018-08-03T01:14:32.902Z,10.10
2018-08-03T01:15:32.870Z,8.30
2018-08-03T01:16:32.841Z,8.40
2018-08-03T01:17:32.811Z,11.10
2018-08-03T01:18:32.777Z,9.70
2018-08-03T01:19:32.752Z,7.60
2018-08-03T01:20:32.720Z,8.50
2018-08-03T01:21:32.697Z,8.20
2018-08-03T01:22:32.662Z,9.50
2018-08-03T01:23:32.630Z,11.00
2018-08-03T01:24:32.599Z,8.60
2018-08-03T01:25:32.574Z,7.80
2018-08-03T01:26:32.543Z,10.30
2018-08-03T01:27:32.518Z,8.30
2018-08-03T01:28:32.487Z,8.70
2018-08-03T01:29:32.450Z,6.90
2018-08-03T01:30:32.422Z,9.60
2018-08-03T01:31:32.393Z,8.40
2018-08-03T01:32:32.361Z,11.50
2018-08-03T01:33:32.337Z,10.90
2018-08-03T01:34:32.306Z,11.70
2018-08-03T01:35:32.278Z,15.50
2018-08-03T01:36:32.248Z,17.20
2018-08-03T01:37:32.217Z,8.70
2018-08-03T01:38:32.185Z,13.80
2018-08-03T01:39:32.173Z,9.10
2018-08-03T01:40:32.131Z,9.40
2018-08-03T01:41:32.098Z,11.50
2018-08-03T01:42:32.067Z,10.60
2018-08-03T01:43:32.038Z,10.00
2018-08-03T01:44:32.005Z,7.90
2018-08-03T01:45:31.980Z,8.60
2018-08-03T01:46:31.952Z,9.80
2018-08-03T01:47:31.919Z,11.30
2018-08-03T01:48:31.888Z,9.50
2018-08-03T01:49:31.855Z,11.00
2018-08-03T01:50:31.832Z,9.70
2018-08-03T01:51:31.803Z,10.00
2018-08-03T01:52:31.765Z,12.10
2018-08-03T01:53:31.750Z,9.50
2018-08-03T01:54:31.711Z,11.10
2018-08-03T01:55:31.686Z,9.00
2018-08-03T01:56:31.646Z,9.40
2018-08-03T01:57:31.622Z,11.50
2018-08-03T01:58:31.590Z,15.50
2018-08-03T01:59:31.562Z,13.60
2018-08-03T02:00:31.534Z,8.00
2018-08-03T02:01:31.497Z,10.20
2018-08-03T02:02:31.472Z,7.80
2018-08-03T02:03:31.440Z,9.70
2018-08-03T02:04:31.407Z,9.00
2018-08-03T02:05:31.383Z,10.50
2018-08-03T02:06:31.355Z,8.70
2018-08-03T02:07:31.322Z,11.20
2018-08-03T02:08:31.294Z,10.30
2018-08-03T02:09:31.264Z,8.90
2018-08-03T02:10:31.230Z,10.30
2018-08-03T02:11:31.201Z,10.90
2018-08-03T02:12:31.173Z,8.30
2018-08-03T02:13:31.138Z,9.50
2018-08-03T02:14:31.109Z,9.90
2018-08-03T02:15:31.080Z,7.70
2018-08-03T02:16:31.047Z,10.50
2018-08-03T02:17:31.023Z,10.60
2018-08-03T02:18:30.992Z,14.10
2018-08-03T02:19:30.963Z,9.10
2018-08-03T02:20:30.941Z,9.50
2018-08-03T02:21:30.898Z,8.60
2018-08-03T02:22:30.874Z,10.10
2018-08-03T02:23:30.840Z,12.50
2018-08-03T02:24:30.805Z,9.40
2018-08-03T02:25:30.781Z,9.80
2018-08-03T02:26:30.755Z,7.40
2018-08-03T02:27:30.720Z,8.80
2018-08-03T02:28:30.685Z,9.80
2018-08-03T02:29:30.663Z,9.10
2018-08-03T02:30:30.634Z,9.70
2018-08-03T02:31:30.608Z,9.70
2018-08-03T02:32:30.570Z,9.20
2018-08-03T02:33:30.543Z,11.30
2018-08-03T02:34:30.506Z,9.50
2018-08-03T02:35:30.476Z,8.60
2018-08-03T02:36:30.445Z,11.00
2018-08-03T02:37:30.419Z,8.60
2018-08-03T02:38:30.392Z,9.60
2018-08-03T02:39:30.365Z,9.40
2018-08-03T02:40:30.335Z,9.50
2018-08-03T02:41:30.298Z,12.30
2018-08-03T02:42:30.264Z,11.40
2018-08-03T02:43:30.242Z,10.30
2018-08-03T02:44:30.208Z,10.80
2018-08-03T02:45:30.173Z,8.70
2018-08-03T02:46:30.142Z,9.80
2018-08-03T02:47:30.117Z,11.30
2018-08-03T02:48:30.080Z,8.80
2018-08-03T02:49:30.062Z,13.40
2018-08-03T02:50:30.025Z,11.40
2018-08-03T02:51:30.003Z,9.30
2018-08-03T02:52:29.965Z,12.00
2018-08-03T02:53:29.928Z,11.70
2018-08-03T02:54:29.901Z,8.30
2018-08-03T02:55:29.869Z,10.50
2018-08-03T02:56:29.837Z,9.30
2018-08-03T02:57:29.812Z,12.80
2018-08-03T02:58:29.781Z,10.70
2018-08-03T02:59:29.749Z,10.80
2018-08-03T03:00:29.751Z,9.80
2018-08-03T03:01:29.693Z,9.00
2018-08-03T03:02:29.665Z,12.00
2018-08-03T03:03:29.630Z,11.70
2018-08-03T03:04:29.607Z,10.40
2018-08-03T03:05:29.564Z,10.10
2018-08-03T03:06:29.536Z,13.10
2018-08-03T03:07:29.515Z,12.30
2018-08-03T03:08:29.474Z,10.90
2018-08-03T03:09:29.449Z,13.40
2018-08-03T03:10:29.419Z,9.50
2018-08-03T03:11:29.386Z,11.40
2018-08-03T03:12:29.360Z,12.20
2018-08-03T03:13:29.321Z,11.40
2018-08-03T03:14:29.292Z,8.40
2018-08-03T03:15:29.263Z,11.30
2018-08-03T03:16:29.238Z,12.30
2018-08-03T03:17:29.201Z,14.80
2018-08-03T03:18:29.172Z,12.80
2018-08-03T03:19:29.204Z,13.00
2018-08-03T03:20:29.107Z,12.40
2018-08-03T03:21:29.083Z,11.10
2018-08-03T03:22:29.051Z,11.90
2018-08-03T03:23:29.022Z,9.40
2018-08-03T03:24:28.993Z,12.40
2018-08-03T03:25:28.958Z,11.30
2018-08-03T03:26:28.928Z,16.30
2018-08-03T03:27:28.898Z,9.50
2018-08-03T03:28:28.863Z,9.20
2018-08-03T03:29:28.839Z,13.40
2018-08-03T03:30:28.835Z,11.10
2018-08-03T03:31:28.775Z,11.00
2018-08-03T03:32:28.795Z,11.80
2018-08-03T03:33:28.740Z,9.40
2018-08-03T03:34:28.687Z,11.30
2018-08-03T03:35:28.665Z,10.80
2018-08-03T03:36:28.627Z,10.80
2018-08-03T03:37:28.590Z,11.50
2018-08-03T03:38:28.560Z,12.40
2018-08-03T03:39:28.529Z,8.40
2018-08-03T03:40:28.501Z,11.50
2018-08-03T03:41:28.471Z,9.30
2018-08-03T03:42:28.442Z,14.00
2018-08-03T03:43:28.412Z,9.90
2018-08-03T03:44:28.382Z,12.70
2018-08-03T03:45:28.378Z,9.10
2018-08-03T03:46:28.319Z,12.80
2018-08-03T03:47:28.296Z,10.50
2018-08-03T03:48:28.261Z,12.70
2018-08-03T03:49:28.227Z,10.60
2018-08-03T03:50:28.192Z,11.30
2018-08-03T03:51:28.161Z,13.10
2018-08-03T04:08:22.969Z,8.90
2018-08-03T04:09:23.230Z,17.50
2018-08-03T04:10:23.716Z,13.20
2018-08-03T04:11:22.819Z,14.10
2018-08-03T04:12:22.829Z,14.70
2018-08-03T04:13:22.746Z,13.90
2018-08-03T04:14:22.718Z,15.20
2018-08-03T04:15:22.692Z,14.70
2018-08-03T04:16:22.650Z,13.70
2018-08-03T04:17:22.624Z,11.90
2018-08-03T04:18:22.580Z,12.20
2018-08-03T04:19:22.550Z,13.70
2018-08-03T04:20:22.519Z,15.10
2018-08-03T04:21:22.495Z,11.90
2018-08-03T04:22:22.450Z,11.60
2018-08-03T04:23:22.420Z,11.60
2018-08-03T04:24:22.389Z,11.90
2018-08-03T04:25:22.354Z,14.80
2018-08-03T04:26:22.334Z,9.70
2018-08-03T04:27:22.298Z,10.20
2018-08-03T04:28:22.264Z,11.90
2018-08-03T04:29:22.236Z,9.70
2018-08-03T04:30:22.197Z,17.70
2018-08-03T04:31:22.169Z,12.00
2018-08-03T04:32:22.135Z,15.10
2018-08-03T04:33:22.103Z,11.40
2018-08-03T04:34:22.078Z,13.50
2018-08-03T04:35:22.046Z,11.40
2018-08-03T04:36:22.015Z,11.70
2018-08-03T04:37:21.976Z,9.40
2018-08-03T04:38:21.950Z,13.00
2018-08-03T04:39:21.917Z,12.10
2018-08-03T04:40:21.887Z,14.40
2018-08-03T04:41:21.857Z,10.90
2018-08-03T04:42:21.831Z,10.40
2018-08-03T04:43:21.791Z,15.60
2018-08-03T04:44:21.759Z,11.30
2018-08-03T04:45:21.726Z,17.20
2018-08-03T04:46:21.705Z,11.30
2018-08-03T04:47:21.668Z,12.30
2018-08-03T04:48:21.639Z,13.00
2018-08-03T04:49:21.616Z,14.30
2018-08-03T04:50:21.574Z,10.60
2018-08-03T04:51:21.550Z,12.10
2018-08-03T04:52:21.513Z,14.40
2018-08-03T04:53:21.484Z,12.30
2018-08-03T04:54:21.451Z,12.00
2018-08-03T04:55:21.425Z,12.60
2018-08-03T04:56:21.386Z,11.60
2018-08-03T04:57:21.354Z,11.10
2018-08-03T04:58:21.333Z,11.20
2018-08-03T04:59:21.302Z,10.10
2018-08-03T05:00:21.271Z,11.90
2018-08-03T05:01:21.239Z,13.40
2018-08-03T05:02:21.204Z,11.30
2018-08-03T05:03:21.173Z,12.10
2018-08-03T05:04:21.145Z,12.20
2018-08-03T05:05:21.110Z,11.70
2018-08-03T05:06:21.085Z,10.90
2018-08-03T05:07:21.053Z,10.00
2018-08-03T05:08:21.020Z,17.00
2018-08-03T05:09:20.987Z,9.80
2018-08-03T05:10:20.964Z,10.20
2018-08-03T05:11:20.929Z,15.70
2018-08-03T05:12:20.904Z,11.20
2018-08-03T05:13:20.877Z,13.30
2018-08-03T05:14:20.840Z,11.70
2018-08-03T05:15:20.852Z,10.50
2018-08-03T05:16:20.774Z,11.70
2018-08-03T05:17:20.743Z,10.30
2018-08-03T05:18:20.717Z,10.40
2018-08-03T05:19:20.685Z,10.90
2018-08-03T05:20:20.655Z,11.40
2018-08-03T05:21:20.627Z,12.80
2018-08-03T05:22:20.592Z,10.30
2018-08-03T05:23:20.562Z,11.50
2018-08-03T05:24:20.558Z,11.60
2018-08-03T05:25:20.509Z,11.60
2018-08-03T05:26:20.473Z,12.80
2018-08-03T05:27:20.440Z,9.30
2018-08-03T05:28:20.411Z,10.60
2018-08-03T05:29:20.376Z,11.20
2018-08-03T05:30:20.437Z,10.90
2018-08-03T05:31:20.320Z,12.40
2018-08-03T05:32:20.290Z,12.30
2018-08-03T05:33:20.261Z,11.60
2018-08-03T05:34:20.228Z,11.20
2018-08-03T05:35:20.238Z,10.80
2018-08-03T05:36:20.233Z,10.90
2018-08-03T05:37:20.134Z,10.00
2018-08-03T05:38:20.109Z,13.80
2018-08-03T05:39:20.078Z,12.50
2018-08-03T05:40:20.049Z,12.50
2018-08-03T05:41:20.013Z,10.80
2018-08-03T05:42:19.988Z,11.60
2018-08-03T05:43:19.957Z,13.60
2018-08-03T05:44:19.933Z,10.30
2018-08-03T05:45:19.911Z,11.50
2018-08-03T05:46:19.876Z,11.50
2018-08-03T05:47:19.834Z,14.80
2018-08-03T05:48:19.813Z,11.20
2018-08-03T05:49:19.771Z,12.40
2018-08-03T05:50:19.761Z,14.00
2018-08-03T05:51:19.716Z,11.40
2018-08-03T05:52:19.746Z,13.50
2018-08-03T05:53:19.658Z,12.30
2018-08-03T05:54:19.632Z,10.00
2018-08-03T05:55:19.596Z,13.90
2018-08-03T05:56:19.567Z,13.20
2018-08-03T05:57:19.536Z,12.30
2018-08-03T05:58:19.502Z,15.70
2018-08-03T05:59:19.478Z,12.10
2018-08-03T06:00:19.443Z,11.10
2018-08-03T06:01:19.410Z,10.00
2018-08-03T06:02:19.388Z,13.10
2018-08-03T06:03:19.364Z,9.80
2018-08-03T06:04:19.332Z,12.50
2018-08-03T06:05:19.300Z,12.20
2018-08-03T06:06:19.262Z,10.80
2018-08-03T06:07:19.236Z,12.40
2018-08-03T06:08:19.277Z,10.30
2018-08-03T06:09:19.173Z,12.80
2018-08-03T06:10:19.150Z,11.10
2018-08-03T06:11:19.119Z,10.50
2018-08-03T06:12:19.091Z,17.10
2018-08-03T06:13:19.060Z,11.90
2018-08-03T06:14:19.032Z,11.90
2018-08-03T06:15:19.001Z,13.80
2018-08-03T06:16:18.971Z,13.40
2018-08-03T06:17:18.943Z,13.50
2018-08-03T06:18:18.912Z,11.80
2018-08-03T06:19:18.880Z,14.00
2018-08-03T06:20:18.856Z,12.60
2018-08-03T06:21:18.819Z,19.50
2018-08-03T06:22:18.795Z,14.20
2018-08-03T06:23:18.766Z,17.00
2018-08-03T06:24:18.736Z,13.90
2018-08-03T06:25:18.710Z,12.00
2018-08-03T06:26:18.672Z,12.80
2018-08-03T06:27:18.648Z,13.10
2018-08-03T06:28:18.618Z,15.90
2018-08-03T06:29:18.591Z,17.20
2018-08-03T06:30:18.556Z,14.10
2018-08-03T06:31:18.529Z,15.50
2018-08-03T06:32:18.501Z,17.80
2018-08-03T06:33:18.469Z,18.20
2018-08-03T06:34:18.449Z,16.30
2018-08-03T06:35:18.417Z,14.80
2018-08-03T06:36:18.386Z,13.80
2018-08-03T06:37:18.363Z,15.30
2018-08-03T06:38:18.390Z,16.90
2018-08-03T06:39:18.298Z,15.80
2018-08-03T06:40:18.267Z,15.00
2018-08-03T06:41:18.236Z,14.10
2018-08-03T06:42:18.216Z,14.90
2018-08-03T06:43:18.185Z,11.90
2018-08-03T06:44:18.151Z,15.20
2018-08-03T06:45:18.119Z,18.60
2018-08-03T06:46:18.095Z,13.60
2018-08-03T06:47:18.065Z,17.90
2018-08-03T06:48:18.042Z,15.10
2018-08-03T06:49:18.011Z,15.10
2018-08-03T06:50:17.974Z,13.70
2018-08-03T06:51:17.946Z,14.50
2018-08-03T06:52:17.919Z,16.10
2018-08-03T06:53:17.891Z,14.60
2018-08-03T06:54:17.865Z,14.70
2018-08-03T06:55:17.831Z,14.70
2018-08-03T06:56:17.804Z,14.20
2018-08-03T06:57:17.771Z,18.80
2018-08-03T06:58:17.748Z,17.40
2018-08-03T06:59:17.717Z,15.10
2018-08-03T07:00:17.687Z,18.10
2018-08-03T07:01:17.672Z,17.90
2018-08-03T07:02:17.637Z,16.80
2018-08-03T07:03:17.605Z,16.80
2018-08-03T07:04:17.573Z,16.90
2018-08-03T07:05:17.549Z,14.50
2018-08-03T07:06:17.514Z,18.20
2018-08-03T07:07:17.488Z,17.00
2018-08-03T07:08:17.461Z,19.10
2018-08-03T07:09:17.430Z,17.70
2018-08-03T07:10:17.405Z,15.90
2018-08-03T07:11:17.372Z,19.00
2018-08-03T07:12:17.348Z,16.10
2018-08-03T07:13:17.315Z,20.00
2018-08-03T07:14:17.286Z,17.40
2018-08-03T07:15:17.258Z,16.00
2018-08-03T07:16:17.230Z,14.20
2018-08-03T07:17:17.204Z,13.40
2018-08-03T07:18:17.169Z,17.50
2018-08-03T07:19:17.145Z,15.20
2018-08-03T07:20:17.257Z,13.90
2018-08-03T07:21:17.085Z,14.50
2018-08-03T07:22:17.058Z,18.00
2018-08-03T07:23:17.028Z,15.70
2018-08-03T07:24:17.000Z,14.80
2018-08-03T07:25:16.977Z,15.30
2018-08-03T07:26:16.942Z,16.30
2018-08-03T07:27:16.917Z,16.70
2018-08-03T07:28:16.886Z,17.00
2018-08-03T07:29:16.859Z,17.20
2018-08-03T07:30:16.833Z,16.10
2018-08-03T07:31:16.804Z,15.20
2018-08-03T07:32:16.772Z,13.10
2018-08-03T07:33:16.746Z,14.30
2018-08-03T07:34:16.717Z,12.00
2018-08-03T07:35:16.694Z,20.20
2018-08-03T07:36:16.660Z,15.70
2018-08-03T07:37:16.633Z,13.40
2018-08-03T07:38:16.599Z,14.10
2018-08-03T07:39:16.575Z,16.70
2018-08-03T07:40:16.545Z,17.00
2018-08-03T07:41:16.514Z,13.00
2018-08-03T07:42:16.493Z,16.10
2018-08-03T07:43:16.489Z,15.20
2018-08-03T07:44:16.447Z,16.20
2018-08-03T07:45:16.410Z,16.80
2018-08-03T07:46:16.375Z,11.80
2018-08-03T07:47:16.350Z,15.20
2018-08-03T07:48:16.326Z,14.40
2018-08-03T07:49:16.324Z,13.80
2018-08-03T07:50:16.263Z,14.40
2018-08-03T07:51:16.237Z,11.80
2018-08-03T07:52:16.208Z,11.60
2018-08-03T07:53:16.183Z,14.80
2018-08-03T07:54:16.159Z,13.50
2018-08-03T07:55:16.129Z,11.10
2018-08-03T07:56:16.100Z,14.20
2018-08-03T07:57:16.074Z,15.20
2018-08-03T07:58:16.040Z,12.60
2018-08-03T07:59:16.018Z,14.20
2018-08-03T08:00:15.993Z,12.40
2018-08-03T08:01:15.957Z,11.70
2018-08-03T08:02:15.935Z,11.90
2018-08-03T08:03:15.910Z,11.10
2018-08-03T08:04:15.877Z,13.00
2018-08-03T08:05:15.874Z,12.80
2018-08-03T08:06:15.845Z,12.50
2018-08-03T08:07:15.849Z,11.80
2018-08-03T08:08:15.763Z,9.20
2018-08-03T08:09:15.743Z,14.00
2018-08-03T08:10:15.714Z,10.80
2018-08-03T08:11:15.682Z,9.80
2018-08-03T08:12:15.656Z,11.30
2018-08-03T08:13:15.626Z,11.50
2018-08-03T08:14:15.610Z,14.70
2018-08-03T08:15:15.672Z,8.50
2018-08-03T08:16:15.547Z,10.40
2018-08-03T08:17:15.520Z,11.30
2018-08-03T08:18:15.487Z,11.60
2018-08-03T08:19:15.460Z,9.30
2018-08-03T08:20:15.441Z,8.30
2018-08-03T08:21:15.409Z,10.40
2018-08-03T08:22:15.378Z,9.00
2018-08-03T08:23:15.354Z,12.30
2018-08-03T08:24:15.329Z,10.80
2018-08-03T08:25:15.307Z,8.30
2018-08-03T08:26:15.355Z,8.90
2018-08-03T08:27:15.243Z,12.20
2018-08-03T08:28:15.220Z,10.70
2018-08-03T08:29:15.195Z,9.10
2018-08-03T08:30:15.161Z,7.70
2018-08-03T08:31:15.133Z,10.50
2018-08-03T08:32:15.105Z,10.20
2018-08-03T08:33:15.077Z,9.10
2018-08-03T08:34:15.057Z,9.00
2018-08-03T08:35:15.027Z,7.20
2018-08-03T08:36:15.015Z,7.70
2018-08-03T08:37:14.966Z,9.50
2018-08-03T08:38:14.944Z,7.10
2018-08-03T08:39:14.919Z,9.30
2018-08-03T08:40:14.892Z,7.10
2018-08-03T08:41:14.865Z,9.70
2018-08-03T08:42:14.834Z,7.90
2018-08-03T08:43:14.807Z,10.10
2018-08-03T08:44:14.778Z,8.30
2018-08-03T08:45:14.747Z,10.10
2018-08-03T08:46:14.726Z,11.20
2018-08-03T08:47:14.697Z,13.50
2018-08-03T08:48:14.677Z,11.10
2018-08-03T08:49:14.732Z,9.70
2018-08-03T08:50:14.613Z,11.50
2018-08-03T08:51:14.589Z,9.10
2018-08-03T08:52:14.576Z,10.10
2018-08-03T08:53:14.561Z,10.80
2018-08-03T08:54:14.502Z,9.80
2018-08-03T08:55:14.483Z,11.70
2018-08-03T08:56:14.451Z,8.00
2018-08-03T08:57:14.420Z,10.20
2018-08-03T08:58:14.402Z,13.10
2018-08-03T08:59:14.373Z,13.50
2018-08-03T09:00:14.349Z,11.40
2018-08-03T09:01:14.335Z,10.30
2018-08-03T09:02:14.287Z,9.30
2018-08-03T09:03:14.266Z,11.50
2018-08-03T09:04:14.246Z,8.90
2018-08-03T09:05:14.206Z,9.00
2018-08-03T09:06:14.187Z,9.40
2018-08-03T09:07:14.156Z,7.70
2018-08-03T09:08:14.128Z,9.20
2018-08-03T09:09:14.099Z,9.10
2018-08-03T09:10:14.078Z,10.70
2018-08-03T09:11:14.049Z,10.90
2018-08-03T09:12:14.021Z,15.60
2018-08-03T09:13:14.037Z,9.50
2018-08-03T09:14:13.964Z,10.60
2018-08-03T09:15:13.941Z,10.70
2018-08-03T09:16:13.909Z,10.80
2018-08-03T09:17:13.881Z,10.50
2018-08-03T09:18:13.863Z,9.40
2018-08-03T09:19:13.837Z,10.70
2018-08-03T09:20:13.804Z,11.80
2018-08-03T09:21:13.781Z,10.00
2018-08-03T09:22:13.824Z,8.80
2018-08-03T09:23:13.726Z,10.30
2018-08-03T09:24:13.722Z,9.30
2018-08-03T09:25:13.673Z,8.30
2018-08-03T09:26:13.641Z,9.30
2018-08-03T09:27:13.621Z,11.10
2018-08-03T09:28:13.591Z,9.20
2018-08-03T09:29:13.560Z,9.40
2018-08-03T09:30:13.540Z,7.20
2018-08-03T09:31:13.511Z,9.30
2018-08-03T09:32:13.486Z,12.00
2018-08-03T09:33:13.459Z,9.20
2018-08-03T09:34:13.425Z,11.20
2018-08-03T09:35:13.404Z,9.00
2018-08-03T09:36:13.381Z,7.90
2018-08-03T09:37:13.345Z,8.70
2018-08-03T09:38:13.325Z,8.30
2018-08-03T09:39:13.296Z,8.20
2018-08-03T09:40:13.295Z,7.70
2018-08-03T09:41:13.239Z,7.30
2018-08-03T09:42:13.221Z,10.80
2018-08-03T09:43:13.191Z,10.80
2018-08-03T09:44:13.168Z,12.40
2018-08-03T09:45:13.142Z,7.80
2018-08-03T09:46:13.106Z,7.90
2018-08-03T09:47:13.087Z,9.90
2018-08-03T09:48:13.059Z,8.00
2018-08-03T09:49:13.134Z,7.60
2018-08-03T09:50:13.053Z,11.70
2018-08-03T09:51:12.983Z,8.00
2018-08-03T09:52:12.955Z,7.20
2018-08-03T09:53:12.927Z,8.60
2018-08-03T09:54:12.896Z,7.60
2018-08-03T09:55:12.922Z,7.50
2018-08-03T09:56:12.849Z,7.00
2018-08-03T09:57:12.821Z,11.90
2018-08-03T09:58:12.788Z,9.10
2018-08-03T09:59:12.765Z,12.00
2018-08-03T10:00:12.740Z,12.60
2018-08-03T10:01:12.710Z,8.70
2018-08-03T10:02:12.689Z,8.00
2018-08-03T10:03:12.661Z,9.00
2018-08-03T10:04:12.637Z,10.40
2018-08-03T10:05:12.609Z,8.60
2018-08-03T10:06:13.264Z,7.50
2018-08-03T10:07:12.560Z,8.90
2018-08-03T10:21:00.435Z,7.40
2018-08-03T10:22:00.372Z,8.90
2018-08-03T10:23:00.337Z,9.20
2018-08-03T10:24:00.310Z,6.40
2018-08-03T10:25:00.277Z,7.70
2018-08-03T10:26:00.245Z,8.30
2018-08-03T10:27:00.218Z,6.30
2018-08-03T10:28:00.197Z,8.60
2018-08-03T10:29:00.165Z,6.00
2018-08-03T10:30:00.147Z,5.50
2018-08-03T10:31:00.105Z,6.90
2018-08-03T10:32:00.081Z,7.30
2018-08-03T10:33:00.059Z,11.30
2018-08-03T10:34:00.030Z,8.80
2018-08-03T10:35:00.020Z,6.40
2018-08-03T10:35:59.972Z,5.10
2018-08-03T10:36:59.942Z,7.30
2018-08-03T10:37:59.914Z,5.80
2018-08-03T10:38:59.892Z,7.00
2018-08-03T10:39:59.867Z,10.50
2018-08-03T10:40:59.842Z,6.70
2018-08-03T10:41:59.819Z,7.90
2018-08-03T10:42:59.874Z,6.40
2018-08-03T10:43:59.757Z,7.00
2018-08-03T10:44:59.729Z,6.00
2018-08-03T10:45:59.713Z,10.30
2018-08-03T10:46:59.683Z,6.00
2018-08-03T10:47:59.653Z,5.80
2018-08-03T10:48:59.629Z,7.50
2018-08-03T10:49:59.643Z,6.70
2018-08-03T10:50:59.575Z,7.10
2018-08-03T10:51:59.551Z,7.00
2018-08-03T10:52:59.537Z,8.20
2018-08-03T10:53:59.502Z,6.90
2018-08-03T10:54:59.471Z,6.60
2018-08-03T10:55:59.444Z,6.90
2018-08-03T10:56:59.418Z,5.90
2018-08-03T10:57:59.389Z,5.80
2018-08-03T10:58:59.370Z,5.90
2018-08-03T10:59:59.347Z,4.60
2018-08-03T11:00:59.323Z,5.00
2018-08-03T11:01:59.293Z,5.70
2018-08-03T11:02:59.263Z,6.60
2018-08-03T11:03:59.240Z,5.90
2018-08-03T11:04:59.219Z,6.50
2018-08-03T11:05:59.194Z,4.80
2018-08-03T11:06:59.167Z,8.50
2018-08-03T11:07:59.139Z,5.80
2018-08-03T11:08:59.110Z,5.90
2018-08-03T11:09:59.082Z,7.30
2018-08-03T11:10:59.060Z,8.10
2018-08-03T11:11:59.038Z,5.60
2018-08-03T11:12:59.019Z,8.90
2018-08-03T11:13:59.048Z,10.20
2018-08-03T11:14:58.967Z,5.70
2018-08-03T11:15:58.932Z,8.00
2018-08-03T11:16:58.913Z,5.40
2018-08-03T11:17:58.887Z,8.90
2018-08-03T11:18:58.859Z,6.80
2018-08-03T11:19:58.831Z,9.10
2018-08-03T11:20:58.805Z,5.10
2018-08-03T11:21:58.778Z,6.60
2018-08-03T11:22:58.755Z,6.60
2018-08-03T11:23:58.746Z,7.60
2018-08-03T11:24:58.712Z,5.20
2018-08-03T11:25:58.685Z,6.80
2018-08-03T11:26:58.657Z,4.90
2018-08-03T11:27:58.631Z,7.60
2018-08-03T11:28:58.604Z,7.70
2018-08-03T11:29:58.582Z,6.80
2018-08-03T11:30:58.554Z,6.90
2018-08-03T11:31:58.532Z,7.60
2018-08-03T11:32:58.512Z,7.70
2018-08-03T11:33:58.483Z,9.00
2018-08-03T11:34:58.459Z,7.50
2018-08-03T11:35:58.432Z,5.70
2018-08-03T11:36:58.408Z,7.10
2018-08-03T11:37:58.386Z,6.50
2018-08-03T11:38:58.356Z,7.30
2018-08-03T11:39:58.330Z,5.10
2018-08-03T11:40:58.308Z,5.80
2018-08-03T11:41:58.278Z,6.30
2018-08-03T11:42:58.254Z,6.70
2018-08-03T11:43:58.233Z,7.10
2018-08-03T11:44:58.210Z,6.20
2018-08-03T11:45:58.188Z,5.80
2018-08-03T11:46:58.198Z,6.30
2018-08-03T11:47:58.131Z,9.40
2018-08-03T11:48:58.109Z,6.70
2018-08-03T11:49:58.085Z,11.50
2018-08-03T11:50:58.060Z,6.90
2018-08-03T11:51:58.031Z,5.80
2018-08-03T11:52:58.008Z,6.00
2018-08-03T11:53:58.006Z,6.50
2018-08-03T11:54:57.956Z,5.80
2018-08-03T11:55:57.934Z,10.80
2018-08-03T11:56:57.917Z,5.60
2018-08-03T11:57:57.887Z,6.90
2018-08-03T11:58:57.858Z,5.80
2018-08-03T11:59:57.837Z,8.50
2018-08-03T12:00:57.876Z,5.10
2018-08-03T12:01:57.822Z,8.50
2018-08-03T12:02:57.757Z,5.60
2018-08-03T12:03:57.734Z,5.10
2018-08-03T12:04:57.715Z,8.20
2018-08-03T12:05:57.680Z,7.30
2018-08-03T12:06:57.660Z,6.00
2018-08-03T12:07:57.635Z,6.20
2018-08-03T12:08:57.613Z,5.00
2018-08-03T12:09:57.588Z,8.10
2018-08-03T12:10:57.562Z,6.40
2018-08-03T12:11:57.535Z,5.80
2018-08-03T12:12:57.509Z,7.40
2018-08-03T12:13:57.482Z,6.00
2018-08-03T12:14:57.460Z,6.10
2018-08-03T12:15:57.440Z,6.00
2018-08-03T12:16:57.416Z,7.20
2018-08-03T12:17:57.449Z,5.40
2018-08-03T12:18:57.365Z,6.30
2018-08-03T12:19:57.339Z,6.50
2018-08-03T12:20:57.313Z,6.10
2018-08-03T12:21:57.294Z,5.90
2018-08-03T12:22:57.266Z,6.10
2018-08-03T12:23:57.315Z,8.70
2018-08-03T12:24:57.217Z,5.60
2018-08-03T12:25:57.187Z,6.50
2018-08-03T12:26:57.166Z,6.60
2018-08-03T12:27:57.145Z,13.90
2018-08-03T12:28:57.122Z,7.90
2018-08-03T12:29:57.090Z,5.70
2018-08-03T12:30:57.072Z,5.00
2018-08-03T12:31:57.048Z,7.30
2018-08-03T12:32:57.023Z,8.10
2018-08-03T12:33:57.002Z,6.90
2018-08-03T12:34:56.971Z,6.60
2018-08-03T12:35:56.946Z,7.70
2018-08-03T12:36:56.948Z,6.70
2018-08-03T12:37:56.899Z,7.90
2018-08-03T12:38:56.873Z,6.10
2018-08-03T12:39:56.848Z,5.20
2018-08-03T12:40:56.820Z,5.10
2018-08-03T12:41:56.797Z,6.10
2018-08-03T12:42:56.776Z,7.20
2018-08-03T12:43:56.754Z,5.70
2018-08-03T12:44:56.733Z,7.50
2018-08-03T12:45:56.715Z,7.10
2018-08-03T12:46:56.677Z,7.90
2018-08-03T12:47:56.650Z,5.50
2018-08-03T12:48:56.623Z,6.40
2018-08-03T12:49:56.598Z,6.20
2018-08-03T12:50:56.577Z,5.70
2018-08-03T12:51:56.558Z,5.10
2018-08-03T12:52:56.571Z,5.40
2018-08-03T12:53:56.501Z,4.80
2018-08-03T12:54:56.488Z,5.20
2018-08-03T12:55:56.458Z,7.30
2018-08-03T12:56:56.434Z,6.00
2018-08-03T12:57:56.413Z,4.80
2018-08-03T12:58:56.387Z,5.20
2018-08-03T12:59:56.357Z,5.60
2018-08-03T13:00:56.338Z,5.00
2018-08-03T13:01:56.307Z,6.10
2018-08-03T13:02:56.284Z,5.60
2018-08-03T13:03:56.264Z,4.90
2018-08-03T13:04:56.239Z,7.20
2018-08-03T13:05:56.214Z,5.40
2018-08-03T13:06:56.192Z,6.30
2018-08-03T13:07:56.287Z,7.40
2018-08-03T13:08:56.137Z,5.40
2018-08-03T13:09:56.119Z,6.40
2018-08-03T13:10:56.090Z,7.10
2018-08-03T13:11:56.065Z,6.10
2018-08-03T13:12:56.042Z,6.60
2018-08-03T13:13:56.015Z,6.20
2018-08-03T13:14:56.025Z,7.50
2018-08-03T13:15:55.972Z,6.20
2018-08-03T13:16:55.947Z,5.00
2018-08-03T13:17:55.921Z,10.10
2018-08-03T13:18:55.900Z,7.00
2018-08-03T13:19:55.869Z,7.00
2018-08-03T13:20:55.845Z,4.60
2018-08-03T13:21:55.818Z,7.70
2018-08-03T13:22:55.796Z,8.20
2018-08-03T13:23:55.774Z,6.30
2018-08-03T13:24:55.752Z,5.20
2018-08-03T13:25:55.721Z,7.80
2018-08-03T13:26:55.700Z,6.50
2018-08-03T13:27:55.680Z,9.20
2018-08-03T13:28:55.656Z,6.60
2018-08-03T13:29:55.630Z,6.40
2018-08-03T13:30:55.607Z,5.00
2018-08-03T13:31:55.580Z,7.30
2018-08-03T13:32:55.561Z,5.60